Time;durP1;ratioP1;P1;durP2;ratioP2;P2;SDS_P1;SDS_P2;PMS_P1;PMS_P2;Temp;Humidity;BMP_temperature;BMP_pressure;BME280_temperature;BME280_humidity;BME280_pressure;Samples;Min_cycle;Max_cycle;Signal;HPM_P1;HPM_P2
2022/10/25 00:00:52;;;;;;;0.50;0.50;;;;;;;14.59;87.22;99820.31;5036375;28;20197;-76
2022/10/25 00:03:19;;;;;;;0.60;0.60;;;;;;;14.52;87.10;99814.56;5035255;28;20592;-75
2022/10/25 00:05:46;;;;;;;0.47;0.47;;;;;;;14.60;87.03;99822.00;5034705;28;20304;-75
2022/10/25 00:08:14;;;;;;;0.50;0.50;;;;;;;14.44;86.51;99813.19;5034290;28;20706;-76
2022/10/25 00:10:41;;;;;;;0.70;0.70;;;;;;;14.46;86.68;99812.22;5033779;28;20697;-76
2022/10/25 00:13:09;;;;;;;0.50;0.50;;;;;;;14.40;87.03;99809.88;5034277;28;20198;-75
2022/10/25 00:15:36;;;;;;;0.60;0.60;;;;;;;14.42;86.63;99805.50;5035506;28;20232;-75
2022/10/25 00:18:02;;;;;;;0.60;0.60;;;;;;;14.43;86.69;99811.50;5034417;28;20201;-76
2022/10/25 00:20:29;;;;;;;0.50;0.50;;;;;;;14.28;86.91;99812.06;5030810;28;20193;-76
2022/10/25 00:22:57;;;;;;;1.10;1.10;;;;;;;14.22;88.50;99813.13;5033933;28;20899;-75
2022/10/25 00:25:25;;;;;;;0.50;0.50;;;;;;;14.02;88.16;99800.16;5030924;28;20601;-76
2022/10/25 00:27:52;;;;;;;0.50;0.50;;;;;;;14.16;88.04;99815.94;5035447;28;20206;-76
2022/10/25 00:30:19;;;;;;;0.70;0.70;;;;;;;14.05;87.88;99805.22;5034804;28;20205;-75
2022/10/25 00:32:45;;;;;;;0.50;0.50;;;;;;;14.11;87.56;99810.13;5034184;28;20213;-75
2022/10/25 00:35:12;;;;;;;0.50;0.50;;;;;;;14.13;87.65;99810.91;5034086;28;20206;-75
2022/10/25 00:37:39;;;;;;;0.60;0.60;;;;;;;14.13;86.99;99818.63;5028703;28;20300;-74
2022/10/25 00:40:07;;;;;;;0.50;0.50;;;;;;;14.18;86.76;99811.56;5034400;28;20689;-75
2022/10/25 00:42:36;;;;;;;0.83;0.70;;;;;;;14.09;86.84;99811.91;5033617;28;20454;-75
2022/10/25 00:45:14;;;;;;;0.50;0.50;;;;;;;14.13;86.57;99800.59;5030678;28;20212;-75
2022/10/25 00:47:48;;;;;;;0.50;0.50;;;;;;;14.08;86.72;99799.94;5032273;28;20205;-75
2022/10/25 00:50:22;;;;;;;0.87;0.87;;;;;;;14.06;87.02;99796.56;5037699;28;20221;-75
2022/10/25 00:52:53;;;;;;;0.60;0.60;;;;;;;14.08;87.26;99789.63;5038543;28;20219;-75
2022/10/25 00:55:21;;;;;;;0.50;0.50;;;;;;;13.87;88.23;99793.00;5037474;28;20247;-76
2022/10/25 00:57:54;;;;;;;0.50;0.50;;;;;;;13.82;88.21;99766.56;5035867;28;20205;-75
2022/10/25 01:00:21;;;;;;;0.70;0.70;;;;;;;13.82;88.74;99787.19;5029957;28;20212;-75
2022/10/25 01:02:48;;;;;;;0.50;0.50;;;;;;;13.87;89.12;99791.25;5033780;28;20201;-76
2022/10/25 01:05:17;;;;;;;0.50;0.50;;;;;;;13.91;89.04;99792.00;5039016;28;20228;-75
2022/10/25 01:07:44;;;;;;;0.50;0.50;;;;;;;13.82;89.03;99793.19;5036645;28;20732;-76
2022/10/25 01:10:11;;;;;;;0.50;0.50;;;;;;;13.87;89.42;99795.56;5033970;28;20217;-76
2022/10/25 01:12:38;;;;;;;0.40;0.40;;;;;;;13.82;90.07;99792.34;5033395;28;20202;-76
2022/10/25 01:15:07;;;;;;;0.77;0.77;;;;;;;13.84;89.64;99799.09;5036882;28;20205;-74
2022/10/25 01:17:42;;;;;;;0.53;0.53;;;;;;;13.83;89.83;99801.75;5034357;28;20703;-76
2022/10/25 01:20:45;;;;;;;0.80;0.80;;;;;;;13.79;89.46;99798.44;5032976;28;20669;-76
2022/10/25 01:23:27;;;;;;;0.70;0.70;;;;;;;13.76;90.20;99800.28;5030080;28;20204;-75
2022/10/25 01:26:18;;;;;;;0.87;0.70;;;;;;;13.63;89.72;99790.41;5036171;28;20205;-76
2022/10/25 01:29:04;;;;;;;0.60;0.60;;;;;;;13.60;89.77;99772.50;5035512;28;20201;-76
2022/10/25 01:31:40;;;;;;;1.80;0.80;;;;;;;13.59;90.10;99785.44;5033189;28;20194;-76
2022/10/25 01:34:15;;;;;;;0.37;0.37;;;;;;;13.64;89.59;99791.25;5034856;28;20204;-76
2022/10/25 01:36:46;;;;;;;0.40;0.40;;;;;;;13.61;90.47;99796.53;5028936;28;20218;-76
2022/10/25 01:39:18;;;;;;;0.57;0.57;;;;;;;13.66;90.15;99789.50;5033194;28;20197;-76
2022/10/25 01:41:57;;;;;;;0.50;0.50;;;;;;;13.63;89.88;99795.56;5029919;28;20216;-76
2022/10/25 01:44:36;;;;;;;0.50;0.50;;;;;;;13.58;90.24;99789.75;5034281;28;20205;-75
2022/10/25 01:47:08;;;;;;;1.00;1.00;;;;;;;13.58;90.26;99782.03;5036654;28;20573;-76
2022/10/25 01:49:41;;;;;;;0.47;0.47;;;;;;;13.42;91.05;99780.91;5044511;28;20233;-76
2022/10/25 01:52:08;;;;;;;0.70;0.70;;;;;;;13.46;91.36;99771.31;5037846;28;20697;-76
2022/10/25 01:54:35;;;;;;;0.77;0.77;;;;;;;13.42;91.89;99773.16;5039104;28;20222;-76
2022/10/25 01:57:27;;;;;;;0.63;0.63;;;;;;;13.45;91.53;99767.91;5038140;28;20213;-76
2022/10/25 02:00:06;;;;;;;0.50;0.50;;;;;;;13.48;91.94;99767.78;5028156;28;20324;-76
2022/10/25 02:02:45;;;;;;;0.60;0.60;;;;;;;13.47;91.28;99766.09;5032661;28;20285;-74
2022/10/25 02:05:18;;;;;;;0.67;0.67;;;;;;;13.46;91.55;99767.03;5031529;28;20217;-76
2022/10/25 02:07:58;;;;;;;0.43;0.43;;;;;;;13.40;90.80;99749.22;5032219;28;20764;-76
2022/10/25 02:10:31;;;;;;;0.60;0.60;;;;;;;13.48;90.69;99757.50;5036468;28;20205;-76
2022/10/25 02:13:04;;;;;;;0.50;0.50;;;;;;;13.38;91.27;99755.28;5036346;28;20268;-76
2022/10/25 02:15:37;;;;;;;0.50;0.50;;;;;;;13.40;91.20;99754.38;5036448;28;20206;-76
2022/10/25 02:18:09;;;;;;;0.40;0.40;;;;;;;13.22;91.92;99769.59;5031444;28;20202;-76
2022/10/25 02:20:36;;;;;;;0.50;0.50;;;;;;;13.27;91.63;99775.44;5033906;28;20207;-76
2022/10/25 02:23:06;;;;;;;0.47;0.47;;;;;;;13.24;91.48;99773.81;5038396;28;20208;-76
2022/10/25 02:25:34;;;;;;;0.40;0.40;;;;;;;13.18;90.23;99776.63;5042570;28;20205;-76
2022/10/25 02:28:05;;;;;;;0.50;0.50;;;;;;;13.15;90.84;99764.66;5035767;28;20197;-76
2022/10/25 02:30:33;;;;;;;0.50;0.50;;;;;;;13.05;90.11;99750.41;5039085;28;20724;-76
2022/10/25 02:33:01;;;;;;;0.57;0.57;;;;;;;13.09;90.91;99764.03;5043506;28;20193;-75
2022/10/25 02:35:29;;;;;;;0.40;0.40;;;;;;;13.04;91.12;99755.63;5036720;28;20206;-76
2022/10/25 02:37:56;;;;;;;0.50;0.50;;;;;;;13.08;91.37;99767.50;5035729;28;20248;-75
2022/10/25 02:40:24;;;;;;;0.50;0.50;;;;;;;13.04;95.01;99763.34;5033461;28;20205;-76
2022/10/25 02:42:50;;;;;;;0.50;0.50;;;;;;;12.85;93.20;99759.72;5045732;28;20578;-76
2022/10/25 02:45:17;;;;;;;0.50;0.50;;;;;;;12.96;92.79;99766.16;5026613;28;20220;-76
2022/10/25 02:47:44;;;;;;;0.50;0.50;;;;;;;12.97;92.43;99765.28;5031114;28;20684;-75
2022/10/25 02:50:11;;;;;;;0.50;0.50;;;;;;;12.83;92.34;99766.63;5040206;28;20197;-76
2022/10/25 02:52:39;;;;;;;0.50;0.50;;;;;;;12.89;92.09;99761.31;5034804;28;20207;-76
2022/10/25 02:55:07;;;;;;;0.60;0.60;;;;;;;12.84;91.98;99768.31;5037794;28;20201;-76
2022/10/25 02:57:34;;;;;;;0.60;0.60;;;;;;;12.81;92.39;99760.69;5048299;28;20295;-76
2022/10/25 03:00:01;;;;;;;0.50;0.50;;;;;;;12.87;93.23;99769.06;5043614;28;20581;-75
2022/10/25 03:02:28;;;;;;;0.60;0.60;;;;;;;12.81;92.79;99763.28;5035508;28;20654;-76
2022/10/25 03:04:54;;;;;;;0.50;0.50;;;;;;;12.83;92.77;99756.34;5036631;28;20669;-76
2022/10/25 03:07:21;;;;;;;0.73;0.73;;;;;;;12.75;93.11;99759.19;5035331;28;20229;-76
2022/10/25 03:09:50;;;;;;;0.67;0.67;;;;;;;12.77;92.83;99754.81;5030017;28;20688;-76
2022/10/25 03:12:16;;;;;;;0.73;0.73;;;;;;;12.75;93.41;99755.75;5035160;28;20220;-76
2022/10/25 03:14:43;;;;;;;0.43;0.43;;;;;;;12.72;93.63;99753.28;5038188;28;20208;-76
2022/10/25 03:17:10;;;;;;;0.60;0.60;;;;;;;12.77;93.82;99756.53;5034979;28;20217;-76
2022/10/25 03:19:37;;;;;;;1.10;1.10;;;;;;;12.67;93.86;99739.72;5036320;28;20562;-77
2022/10/25 03:22:04;;;;;;;0.53;0.53;;;;;;;12.73;94.26;99752.41;5034986;28;20285;-76
2022/10/25 03:24:30;;;;;;;0.50;0.50;;;;;;;12.58;94.22;99741.72;5035396;28;20688;-76
2022/10/25 03:26:59;;;;;;;0.63;0.63;;;;;;;12.66;94.39;99750.94;5036935;28;20684;-76
2022/10/25 03:29:26;;;;;;;0.50;0.50;;;;;;;12.69;94.53;99754.25;5037022;28;20708;-75
2022/10/25 03:31:52;;;;;;;0.53;0.53;;;;;;;12.45;94.41;99740.44;5035666;28;20234;-76
2022/10/25 03:34:19;;;;;;;0.50;0.50;;;;;;;12.60;94.51;99760.50;5033468;28;20202;-76
2022/10/25 03:36:46;;;;;;;0.50;0.50;;;;;;;12.61;94.48;99757.06;5033003;28;20213;-76
2022/10/25 03:39:13;;;;;;;0.90;0.90;;;;;;;12.63;93.94;99752.69;5033260;28;20201;-76
2022/10/25 03:41:40;;;;;;;0.50;0.50;;;;;;;12.51;94.22;99750.53;5032909;28;20743;-75
2022/10/25 03:44:08;;;;;;;0.50;0.50;;;;;;;12.50;93.86;99748.03;5034010;28;20205;-76
2022/10/25 03:46:35;;;;;;;0.50;0.50;;;;;;;12.53;94.00;99751.34;5032672;28;20196;-74
2022/10/25 03:49:01;;;;;;;0.50;0.50;;;;;;;12.49;93.75;99757.47;5033493;28;20197;-76
2022/10/25 03:51:28;;;;;;;0.50;0.50;;;;;;;12.51;93.72;99760.81;5036908;28;20555;-76
2022/10/25 03:53:55;;;;;;;0.43;0.43;;;;;;;12.41;93.93;99759.41;5033906;28;20205;-76
2022/10/25 03:56:22;;;;;;;0.50;0.50;;;;;;;12.25;94.17;99741.97;5034464;28;20220;-76
2022/10/25 03:58:49;;;;;;;0.40;0.40;;;;;;;12.27;94.81;99740.19;5033154;28;20225;-65
2022/10/25 04:01:17;;;;;;;0.40;0.40;;;;;;;12.08;94.21;99709.91;5031661;28;20202;-65
2022/10/25 04:03:44;;;;;;;0.40;0.40;;;;;;;12.38;94.42;99743.25;5033004;28;20205;-70
2022/10/25 04:06:11;;;;;;;0.50;0.50;;;;;;;12.24;94.68;99746.28;5031140;28;20296;-70
2022/10/25 04:08:38;;;;;;;1.10;1.10;;;;;;;12.27;94.97;99746.19;5030414;28;20205;-70
2022/10/25 04:11:05;;;;;;;0.60;0.60;;;;;;;12.29;94.55;99743.53;5031103;28;20205;-70
2022/10/25 04:13:32;;;;;;;0.60;0.60;;;;;;;12.21;93.93;99741.25;5031163;28;20202;-70
2022/10/25 04:15:59;;;;;;;0.57;0.57;;;;;;;12.26;94.38;99744.50;5028296;28;20208;-70
2022/10/25 04:18:27;;;;;;;0.60;0.60;;;;;;;12.11;95.15;99739.84;5029500;28;20229;-70
2022/10/25 04:20:54;;;;;;;0.50;0.50;;;;;;;12.14;95.32;99728.63;5030971;28;20570;-70
2022/10/25 04:23:21;;;;;;;0.53;0.53;;;;;;;12.07;95.57;99733.09;5030985;28;20205;-70
2022/10/25 04:25:47;;;;;;;0.50;0.50;;;;;;;12.05;95.44;99734.91;5030706;28;20201;-70
2022/10/25 04:28:14;;;;;;;0.70;0.70;;;;;;;12.09;95.21;99745.00;5030877;28;20193;-70
2022/10/25 04:30:41;;;;;;;0.50;0.50;;;;;;;12.05;94.84;99747.75;5030594;28;20201;-70
2022/10/25 04:33:08;;;;;;;0.40;0.40;;;;;;;12.10;94.55;99745.84;5031092;28;20263;-70
2022/10/25 04:35:36;;;;;;;0.50;0.50;;;;;;;12.01;94.95;99736.72;5031103;28;20205;-70
2022/10/25 04:38:03;;;;;;;0.60;0.60;;;;;;;12.02;95.13;99734.97;5030657;28;20210;-70
2022/10/25 04:40:32;;;;;;;3.93;1.20;;;;;;;12.05;95.06;99734.91;5030323;28;20259;-70
2022/10/25 04:43:01;;;;;;;0.50;0.50;;;;;;;12.00;94.54;99740.16;5030259;28;20251;-70
2022/10/25 04:45:27;;;;;;;0.50;0.50;;;;;;;11.89;96.96;99743.97;5030595;28;20284;-70
2022/10/25 04:47:54;;;;;;;0.57;0.57;;;;;;;11.90;95.90;99748.19;5030364;28;20255;-70
2022/10/25 04:50:21;;;;;;;0.50;0.50;;;;;;;11.94;95.91;99742.06;5030136;28;20193;-70
2022/10/25 04:52:49;;;;;;;0.73;0.73;;;;;;;11.94;95.65;99747.22;5027827;28;20704;-70
2022/10/25 04:55:16;;;;;;;0.60;0.60;;;;;;;11.99;95.70;99746.19;5022185;28;20263;-69
2022/10/25 04:57:43;;;;;;;0.50;0.50;;;;;;;11.94;95.31;99748.06;5030626;28;20213;-70
2022/10/25 05:00:11;;;;;;;0.60;0.60;;;;;;;11.91;95.74;99737.88;5030303;28;20201;-70
2022/10/25 05:02:38;;;;;;;0.70;0.70;;;;;;;11.96;95.88;99748.84;5028147;28;20216;-70
2022/10/25 05:05:06;;;;;;;0.60;0.60;;;;;;;11.90;95.82;99753.31;5027695;28;20601;-70
2022/10/25 05:07:32;;;;;;;0.50;0.50;;;;;;;11.90;95.46;99758.47;5018685;28;20221;-70
2022/10/25 05:10:01;;;;;;;0.60;0.60;;;;;;;11.93;95.18;99760.94;5010794;28;20205;-70
2022/10/25 05:12:27;;;;;;;0.50;0.50;;;;;;;11.95;95.26;99754.03;5010268;28;20209;-70
2022/10/25 05:14:54;;;;;;;0.70;0.70;;;;;;;11.98;95.57;99756.53;5010550;28;20206;-70
2022/10/25 05:17:21;;;;;;;0.63;0.63;;;;;;;11.95;95.40;99760.03;5011148;28;20727;-70
2022/10/25 05:19:48;;;;;;;0.70;0.70;;;;;;;11.90;95.74;99753.31;5013755;28;20582;-70
2022/10/25 05:22:14;;;;;;;0.43;0.43;;;;;;;11.87;96.33;99766.25;5010943;28;20202;-70
2022/10/25 05:24:41;;;;;;;0.50;0.50;;;;;;;11.91;96.72;99762.72;5013643;28;20197;-70
2022/10/25 05:27:09;;;;;;;0.73;0.73;;;;;;;11.88;97.34;99763.66;5013012;28;20205;-70
2022/10/25 05:29:37;;;;;;;0.50;0.50;;;;;;;11.82;97.32;99753.56;5013258;28;20202;-70
2022/10/25 05:32:04;;;;;;;0.40;0.40;;;;;;;11.83;97.66;99762.09;5013033;28;20613;-70
2022/10/25 05:34:31;;;;;;;0.60;0.60;;;;;;;11.86;97.26;99767.13;5014098;28;20202;-71
2022/10/25 05:36:58;;;;;;;0.97;0.97;;;;;;;11.96;97.52;99763.41;5011578;28;20222;-69
2022/10/25 05:39:25;;;;;;;0.50;0.50;;;;;;;11.94;97.52;99755.75;5011631;28;20202;-65
2022/10/25 05:41:51;;;;;;;0.80;0.80;;;;;;;12.02;97.79;99771.78;5011929;28;20446;-66
2022/10/25 05:44:20;;;;;;;0.60;0.60;;;;;;;12.15;96.58;99772.25;5012760;28;20202;-65
2022/10/25 05:46:46;;;;;;;0.50;0.50;;;;;;;12.09;96.22;99773.28;5012727;28;20820;-65
2022/10/25 05:49:13;;;;;;;1.40;1.10;;;;;;;12.16;96.49;99773.94;5012756;28;20629;-65
2022/10/25 05:51:40;;;;;;;0.53;0.53;;;;;;;12.13;96.78;99773.19;5012513;28;20217;-64
2022/10/25 05:54:10;;;;;;;0.60;0.60;;;;;;;12.13;97.00;99768.88;5012539;28;20574;-64
2022/10/25 05:56:38;;;;;;;0.60;0.60;;;;;;;12.09;97.07;99757.00;5012630;28;20559;-64
2022/10/25 05:59:07;;;;;;;0.50;0.50;;;;;;;12.17;96.94;99774.78;5012122;28;20252;-64
2022/10/25 06:01:36;;;;;;;0.50;0.50;;;;;;;12.22;97.67;99776.31;5012748;28;20592;-67
2022/10/25 06:04:03;;;;;;;0.50;0.50;;;;;;;12.25;98.54;99783.94;5005051;28;20213;-64
2022/10/25 06:06:30;;;;;;;0.40;0.40;;;;;;;12.32;98.99;99790.56;5013643;28;20701;-64
2022/10/25 06:08:58;;;;;;;0.80;0.80;;;;;;;12.40;99.08;99792.91;5031856;28;20209;-64
2022/10/25 06:11:26;;;;;;;0.70;0.70;;;;;;;12.46;99.82;99791.00;5032193;28;20566;-64
2022/10/25 06:13:52;;;;;;;0.60;0.60;;;;;;;12.52;100.00;99789.94;5032964;28;20279;-65
2022/10/25 06:16:20;;;;;;;0.50;0.50;;;;;;;12.59;100.00;99789.72;5030674;28;20665;-61
2022/10/25 06:18:48;;;;;;;0.63;0.63;;;;;;;12.68;100.00;99787.72;5026435;28;20607;-65
2022/10/25 06:21:17;;;;;;;0.57;0.57;;;;;;;12.65;100.00;99798.94;5032808;28;20566;-62
2022/10/25 06:23:45;;;;;;;0.57;0.57;;;;;;;12.75;100.00;99789.22;5035672;28;20202;-63
2022/10/25 06:26:14;;;;;;;0.60;0.60;;;;;;;12.83;100.00;99797.50;5031391;28;20206;-63
2022/10/25 06:28:42;;;;;;;0.57;0.57;;;;;;;12.91;100.00;99803.25;5031732;28;20204;-64
2022/10/25 06:31:10;;;;;;;0.60;0.60;;;;;;;12.99;100.00;99793.53;5031940;28;20209;-65
2022/10/25 06:33:38;;;;;;;0.50;0.50;;;;;;;13.06;100.00;99795.84;5030561;28;20200;-65
2022/10/25 06:36:11;;;;;;;0.50;0.50;;;;;;;13.18;100.00;99797.22;5030735;28;20728;-66
2022/10/25 06:38:38;;;;;;;0.80;0.80;;;;;;;13.27;100.00;99799.47;5029368;28;20303;-64
2022/10/25 06:41:07;;;;;;;0.60;0.60;;;;;;;13.34;100.00;99800.09;5031357;28;20216;-65
2022/10/25 06:43:34;;;;;;;0.40;0.40;;;;;;;13.38;100.00;99792.19;5031586;28;20583;-65
2022/10/25 06:46:05;;;;;;;0.60;0.60;;;;;;;13.48;100.00;99797.84;5028314;28;20983;-65
2022/10/25 06:48:32;;;;;;;0.50;0.50;;;;;;;13.52;100.00;99797.69;5030293;28;20264;-66
2022/10/25 06:51:03;;;;;;;0.50;0.50;;;;;;;13.40;100.00;99774.97;5033260;28;20591;-66
2022/10/25 06:53:32;;;;;;;0.40;0.40;;;;;;;13.62;100.00;99801.63;5031222;28;20585;-65
2022/10/25 06:56:02;;;;;;;0.90;0.90;;;;;;;13.70;100.00;99797.94;5033865;28;20209;-64
2022/10/25 06:58:30;;;;;;;0.67;0.67;;;;;;;13.67;100.00;99784.25;5029824;28;20229;-64
2022/10/25 07:01:00;;;;;;;0.60;0.60;;;;;;;13.85;100.00;99798.22;5026119;28;20281;-64
2022/10/25 07:03:30;;;;;;;0.50;0.50;;;;;;;13.79;100.00;99777.84;5031913;28;20297;-64
2022/10/25 07:05:59;;;;;;;0.60;0.60;;;;;;;14.06;100.00;99801.72;5030377;28;20283;-63
2022/10/25 07:08:26;;;;;;;0.40;0.40;;;;;;;14.17;100.00;99789.25;5013594;28;20230;-65
2022/10/25 07:10:55;;;;;;;0.43;0.43;;;;;;;14.35;100.00;99793.72;5012083;28;20206;-63
2022/10/25 07:13:22;;;;;;;0.50;0.50;;;;;;;14.52;100.00;99793.06;5013634;28;20205;-64
2022/10/25 07:15:49;;;;;;;0.60;0.60;;;;;;;14.65;98.77;99783.94;5012197;28;20640;-63
2022/10/25 07:18:16;;;;;;;0.50;0.50;;;;;;;14.87;97.60;99783.88;5011856;28;20237;-64
2022/10/25 07:20:47;;;;;;;0.50;0.50;;;;;;;15.01;97.21;99786.75;5011611;28;20208;-64
2022/10/25 07:23:14;;;;;;;0.60;0.60;;;;;;;15.16;96.89;99788.66;5011710;28;20228;-64
2022/10/25 07:25:41;;;;;;;0.40;0.40;;;;;;;15.25;95.37;99783.09;5011003;28;20213;-64
2022/10/25 07:28:11;;;;;;;0.53;0.53;;;;;;;15.44;94.97;99789.19;5011143;28;20668;-64
2022/10/25 07:30:38;;;;;;;0.70;0.70;;;;;;;15.68;92.81;99787.25;5011418;28;20682;-64
2022/10/25 07:33:04;;;;;;;0.60;0.60;;;;;;;15.90;91.80;99787.97;5010865;28;20276;-64
2022/10/25 07:35:33;;;;;;;0.60;0.60;;;;;;;16.06;91.38;99772.59;5010098;28;20205;-64
2022/10/25 07:38:00;;;;;;;0.70;0.70;;;;;;;16.34;90.02;99777.31;5011259;28;20312;-64
2022/10/25 07:40:27;;;;;;;0.60;0.60;;;;;;;16.57;89.03;99770.16;5008065;28;20210;-65
2022/10/25 07:42:53;;;;;;;0.37;0.37;;;;;;;16.85;88.46;99773.97;5009350;28;20202;-65
2022/10/25 07:45:22;;;;;;;0.40;0.40;;;;;;;17.05;86.46;99771.22;5011678;28;20201;-64
2022/10/25 07:47:51;;;;;;;0.60;0.60;;;;;;;17.35;85.16;99777.41;5010545;28;20209;-66
2022/10/25 07:50:19;;;;;;;0.50;0.50;;;;;;;17.53;84.22;99770.44;5011084;28;20590;-66
2022/10/25 07:52:46;;;;;;;0.40;0.40;;;;;;;17.67;82.99;99755.84;5010673;28;20563;-66
2022/10/25 07:55:13;;;;;;;0.60;0.60;;;;;;;18.02;82.47;99766.09;5010375;28;20202;-66
2022/10/25 07:57:40;;;;;;;0.73;0.73;;;;;;;18.23;80.81;99762.31;5009916;28;20236;-66
2022/10/25 08:00:09;;;;;;;0.67;0.67;;;;;;;18.38;79.97;99758.88;5006321;28;20221;-66
2022/10/25 08:02:37;;;;;;;1.07;0.97;;;;;;;18.55;80.08;99750.13;5011850;28;20563;-66
2022/10/25 08:05:04;;;;;;;0.57;0.57;;;;;;;18.73;78.09;99749.94;5006717;28;20210;-65
2022/10/25 08:07:31;;;;;;;0.50;0.50;;;;;;;18.83;77.02;99753.69;5006136;28;20300;-65
2022/10/25 08:09:58;;;;;;;0.40;0.40;;;;;;;18.97;76.06;99757.19;5008366;28;20210;-66
2022/10/25 08:12:24;;;;;;;0.53;0.53;;;;;;;19.12;76.24;99761.50;5005827;28;20213;-68
2022/10/25 08:14:51;;;;;;;0.40;0.40;;;;;;;19.28;75.17;99767.47;5010417;28;20201;-67
2022/10/25 08:17:18;;;;;;;0.87;0.87;;;;;;;19.42;74.22;99744.09;5006713;28;20209;-67
2022/10/25 08:19:46;;;;;;;0.87;0.87;;;;;;;19.65;74.25;99756.53;5007764;28;20226;-67
2022/10/25 08:22:13;;;;;;;0.60;0.60;;;;;;;19.78;73.66;99741.84;5007156;28;20689;-67
2022/10/25 08:24:40;;;;;;;0.40;0.40;;;;;;;19.95;73.25;99745.13;5010585;28;20215;-67
2022/10/25 08:27:06;;;;;;;0.40;0.40;;;;;;;20.04;71.65;99731.53;5009617;28;20218;-67
2022/10/25 08:29:33;;;;;;;0.43;0.43;;;;;;;20.32;71.64;99734.09;5009913;28;20207;-67
2022/10/25 08:32:00;;;;;;;0.30;0.30;;;;;;;20.52;71.22;99733.63;5009392;28;20759;-67
2022/10/25 08:34:27;;;;;;;0.50;0.50;;;;;;;20.66;71.86;99730.94;5009192;28;20266;-67
2022/10/25 08:36:55;;;;;;;0.40;0.40;;;;;;;20.83;70.24;99725.47;5006512;28;20212;-67
2022/10/25 08:39:22;;;;;;;0.40;0.40;;;;;;;21.02;67.97;99721.59;5008106;28;20240;-67
2022/10/25 08:41:52;;;;;;;0.30;0.30;;;;;;;21.21;67.23;99722.88;5007737;28;20204;-67
2022/10/25 08:44:26;;;;;;;0.50;0.50;;;;;;;21.35;65.59;99719.34;5009562;28;20260;-67
2022/10/25 08:46:59;;;;;;;0.50;0.50;;;;;;;21.44;65.21;99723.91;5007305;28;20700;-67
2022/10/25 08:49:34;;;;;;;0.30;0.30;;;;;;;21.54;65.65;99713.66;5005627;28;20209;-67
2022/10/25 08:52:05;;;;;;;0.37;0.37;;;;;;;21.62;66.16;99701.72;5007858;28;21542;-67
2022/10/25 08:54:35;;;;;;;0.50;0.50;;;;;;;21.75;64.52;99702.53;5007396;28;20198;-67
2022/10/25 08:57:11;;;;;;;0.30;0.30;;;;;;;21.81;63.04;99693.44;5009021;28;20701;-67
2022/10/25 08:59:42;;;;;;;0.40;0.40;;;;;;;22.01;63.33;99697.25;5008346;28;20311;-67
2022/10/25 09:02:17;;;;;;;0.30;0.30;;;;;;;22.01;62.47;99676.34;5009575;28;20210;-67
2022/10/25 09:04:44;;;;;;;0.33;0.33;;;;;;;22.25;61.81;99690.25;5010269;28;20209;-67
2022/10/25 09:07:34;;;;;;;0.30;0.30;;;;;;;22.27;59.54;99685.72;5011803;28;20244;-71
2022/10/25 09:10:09;;;;;;;0.30;0.30;;;;;;;22.34;60.58;99687.78;5012843;28;20216;-72
2022/10/25 09:12:44;;;;;;;0.50;0.50;;;;;;;22.34;60.67;99679.13;5010878;28;20207;-67
2022/10/25 09:15:19;;;;;;;0.30;0.30;;;;;;;22.38;61.65;99662.28;5009503;28;20201;-68
2022/10/25 09:17:49;;;;;;;0.30;0.30;;;;;;;22.68;59.58;99673.06;5010895;28;20205;-68
2022/10/25 09:20:20;;;;;;;0.40;0.40;;;;;;;22.72;58.41;99664.03;5006393;28;20248;-68
2022/10/25 09:22:50;;;;;;;0.30;0.30;;;;;;;22.83;56.92;99674.53;5011896;28;20295;-68
2022/10/25 09:25:23;;;;;;;0.30;0.30;;;;;;;22.78;58.86;99650.50;5001850;28;20594;-69
2022/10/25 09:27:58;;;;;;;0.50;0.50;;;;;;;23.00;58.70;99658.34;5010027;28;20210;-68
2022/10/25 09:30:26;;;;;;;0.40;0.40;;;;;;;23.14;57.75;99653.84;5012310;28;20339;-68
2022/10/25 09:32:56;;;;;;;0.30;0.30;;;;;;;23.20;56.35;99648.16;5013299;28;20214;-68
2022/10/25 09:35:28;;;;;;;0.30;0.30;;;;;;;23.28;56.47;99648.38;5012928;28;20309;-68
2022/10/25 09:38:01;;;;;;;0.20;0.20;;;;;;;23.26;54.92;99645.06;5009252;28;20225;-68
2022/10/25 09:40:34;;;;;;;0.50;0.50;;;;;;;23.36;54.75;99633.72;5010018;28;20210;-68
2022/10/25 09:43:06;;;;;;;0.70;0.70;;;;;;;23.49;55.30;99638.84;5011622;28;20636;-68
2022/10/25 09:45:43;;;;;;;0.40;0.40;;;;;;;23.57;55.25;99625.16;5008543;28;20670;-67
2022/10/25 09:48:22;;;;;;;0.30;0.30;;;;;;;23.62;55.41;99629.06;5012699;28;20209;-68
2022/10/25 09:50:55;;;;;;;0.37;0.37;;;;;;;23.66;53.85;99617.41;5009276;28;20198;-68
2022/10/25 09:53:23;;;;;;;1.13;0.70;;;;;;;23.73;53.30;99610.72;5010459;28;20213;-68
2022/10/25 09:55:53;;;;;;;0.30;0.30;;;;;;;23.80;54.48;99611.06;5009438;28;20257;-68
2022/10/25 09:58:22;;;;;;;0.30;0.30;;;;;;;23.82;53.60;99609.97;5003062;28;20272;-67
2022/10/25 10:00:51;;;;;;;0.40;0.40;;;;;;;23.88;54.51;99609.47;5014796;28;20208;-68
2022/10/25 10:03:18;;;;;;;0.20;0.20;;;;;;;23.95;52.78;99608.03;5005373;28;20263;-68
2022/10/25 10:05:50;;;;;;;0.30;0.30;;;;;;;24.07;53.20;99605.38;5013229;28;20256;-68
2022/10/25 10:08:18;;;;;;;0.20;0.20;;;;;;;24.04;52.46;99599.41;5015592;28;20238;-68
2022/10/25 10:10:48;;;;;;;0.30;0.30;;;;;;;24.14;51.93;99599.50;5014672;28;20202;-68
2022/10/25 10:13:20;;;;;;;0.30;0.30;;;;;;;24.13;50.93;99603.09;5015741;28;20206;-68
2022/10/25 10:15:55;;;;;;;0.40;0.40;;;;;;;24.15;51.70;99589.88;5012744;28;21209;-68
2022/10/25 10:18:27;;;;;;;0.30;0.30;;;;;;;24.18;51.29;99571.28;5004917;28;20221;-71
2022/10/25 10:21:17;;;;;;;0.30;0.30;;;;;;;24.42;51.31;99587.56;5005830;28;20835;-73
2022/10/25 10:23:49;;;;;;;0.30;0.30;;;;;;;24.62;50.18;99594.56;5006911;28;20209;-71
2022/10/25 10:26:26;;;;;;;0.63;0.63;;;;;;;24.69;50.03;99587.00;5013909;28;20661;-69
2022/10/25 10:29:03;;;;;;;0.40;0.40;;;;;;;24.61;51.72;99586.84;5013320;28;20203;-68
2022/10/25 10:31:36;;;;;;;0.30;0.30;;;;;;;24.68;51.42;99573.09;5014622;28;20669;-73
2022/10/25 10:34:03;;;;;;;0.30;0.30;;;;;;;24.72;51.03;99563.97;5009465;28;20233;-71
2022/10/25 10:36:32;;;;;;;0.27;0.27;;;;;;;24.82;50.68;99574.53;5012392;28;20202;-70
2022/10/25 10:39:20;;;;;;;0.53;0.53;;;;;;;24.86;50.13;99568.91;5014037;28;20214;-72
2022/10/25 10:42:16;;;;;;;0.20;0.20;;;;;;;24.94;49.96;99566.44;5013632;28;21376;-68
2022/10/25 10:45:01;;;;;;;0.20;0.20;;;;;;;25.01;50.34;99551.81;5012291;28;20585;-69
2022/10/25 10:47:33;;;;;;;0.30;0.30;;;;;;;25.10;49.72;99562.50;5012136;28;20197;-69
2022/10/25 10:50:00;;;;;;;0.20;0.20;;;;;;;25.18;48.78;99565.25;5009556;28;20213;-70
2022/10/25 10:52:31;;;;;;;0.20;0.20;;;;;;;25.14;48.38;99558.66;5011780;28;20684;-74
2022/10/25 10:54:59;;;;;;;0.43;0.43;;;;;;;25.06;48.87;99560.16;5009292;28;20205;-69
2022/10/25 10:57:31;;;;;;;0.37;0.37;;;;;;;25.12;49.29;99556.16;5012972;28;20683;-70
2022/10/25 10:59:59;;;;;;;0.30;0.30;;;;;;;25.17;49.68;99548.69;5013326;28;20218;-70
2022/10/25 11:02:39;;;;;;;0.10;0.10;;;;;;;25.11;48.47;99545.78;5011339;28;20252;-70
2022/10/25 11:05:22;;;;;;;0.40;0.40;;;;;;;25.15;49.02;99544.53;5004852;28;20662;-71
2022/10/25 11:07:59;;;;;;;0.43;0.43;;;;;;;25.11;48.13;99540.53;5017636;28;20236;-71
2022/10/25 11:10:32;;;;;;;0.23;0.23;;;;;;;25.14;47.88;99542.91;5021676;28;20264;-70
2022/10/25 11:13:16;;;;;;;0.30;0.30;;;;;;;25.19;47.49;99540.69;5015719;28;20214;-69
2022/10/25 11:15:59;;;;;;;0.30;0.30;;;;;;;25.24;47.48;99525.38;5012284;28;20202;-74
2022/10/25 11:18:35;;;;;;;0.40;0.40;;;;;;;25.17;47.32;99527.69;5017223;28;20201;-73
2022/10/25 11:21:12;;;;;;;0.30;0.30;;;;;;;25.14;47.30;99521.91;5018390;28;20216;-69
2022/10/25 11:23:51;;;;;;;0.40;0.40;;;;;;;25.24;47.89;99520.13;5017808;28;20260;-71
2022/10/25 11:26:26;;;;;;;0.47;0.47;;;;;;;25.37;47.25;99523.31;5014304;28;20209;-69
2022/10/25 11:29:03;;;;;;;0.30;0.30;;;;;;;25.34;46.69;99513.09;5010910;28;20194;-69
2022/10/25 11:31:45;;;;;;;0.30;0.30;;;;;;;25.43;47.01;99514.88;5027828;28;20258;-75
2022/10/25 11:34:26;;;;;;;0.30;0.30;;;;;;;25.47;46.68;99516.28;5022677;28;20216;-73
2022/10/25 11:37:06;;;;;;;0.30;0.30;;;;;;;25.58;46.54;99516.19;5020006;28;20198;-73
2022/10/25 11:39:46;;;;;;;0.20;0.20;;;;;;;25.69;46.33;99513.41;5024420;28;20228;-74
2022/10/25 11:42:40;;;;;;;0.30;0.30;;;;;;;25.76;46.99;99519.75;5019004;28;20565;-76
2022/10/25 11:45:22;;;;;;;0.30;0.30;;;;;;;25.86;46.99;99515.31;5012742;28;20201;-68